Time;durP1;ratioP1;P1;durP2;ratioP2;P2;SDS_P1;SDS_P2;PMS_P1;PMS_P2;Temp;Humidity;BMP_temperature;BMP_pressure;BME280_temperature;BME280_humidity;BME280_pressure;Samples;Min_cycle;Max_cycle;Signal;HPM_P1;HPM_P2
2024/04/12 00:00:58;;;;;;;;;;;22.50;60.70;;;;;;5472005;26;19932;-47
2024/04/12 00:03:24;;;;;;;;;;;22.40;60.60;;;;;;5474262;26;24971;-43
2024/04/12 00:05:50;;;;;;;;;;;22.40;60.60;;;;;;5475664;26;19928;-42
2024/04/12 00:08:18;;;;;;;;;;;22.40;60.50;;;;;;5473427;26;19928;-44
2024/04/12 00:10:44;;;;;;;;;;;22.40;60.50;;;;;;5473143;26;23486;-45
2024/04/12 00:13:10;;;;;;;;;;;22.40;60.50;;;;;;5472716;26;19931;-42
2024/04/12 00:15:38;;;;;;;;;;;22.40;60.40;;;;;;5481664;26;19935;-44
2024/04/12 00:18:05;;;;;;;;;;;22.30;60.30;;;;;;5484462;26;19943;-47
2024/04/12 00:20:31;;;;;;;;;;;22.30;60.30;;;;;;5490953;26;19928;-43
2024/04/12 00:22:57;;;;;;;;;;;22.30;60.30;;;;;;5478170;26;19935;-44
2024/04/12 00:25:23;;;;;;;;;;;22.30;60.30;;;;;;5442411;26;20000;-46
2024/04/12 00:27:55;;;;;;;;;;;22.30;60.30;;;;;;5476973;26;19993;-42
2024/04/12 00:30:38;;;;;;;;;;;22.30;60.30;;;;;;5476840;26;19928;-45
2024/04/12 00:33:09;;;;;;;;;;;22.30;60.30;;;;;;5475283;26;20021;-43
2024/04/12 00:35:38;;;;;;;;;;;22.30;60.30;;;;;;5462594;26;19937;-43
2024/04/12 00:38:09;;;;;;;;;;;22.20;60.10;;;;;;5462561;26;19932;-42
2024/04/12 00:40:36;;;;;;;;;;;22.20;60.10;;;;;;5461554;26;19936;-42
2024/04/12 00:43:11;;;;;;;;;;;22.20;60.10;;;;;;5475659;26;19997;-42
2024/04/12 00:45:42;;;;;;;;;;;22.20;60.00;;;;;;5464653;26;19935;-43
2024/04/12 00:48:08;;;;;;;;;;;22.20;59.90;;;;;;5462102;26;19928;-42
2024/04/12 00:50:37;;;;;;;;;;;22.20;59.90;;;;;;5485479;26;19939;-43
2024/04/12 00:53:04;;;;;;;;;;;22.20;59.90;;;;;;5467046;26;19929;-44
2024/04/12 00:55:32;;;;;;;;;;;22.10;59.80;;;;;;5469742;26;19939;-44
2024/04/12 00:58:03;;;;;;;;;;;22.10;59.80;;;;;;5479487;26;19974;-43
2024/04/12 01:00:35;;;;;;;;;;;22.10;59.80;;;;;;5473693;26;19974;-43
2024/04/12 01:03:14;;;;;;;;;;;22.10;59.80;;;;;;5475466;26;19928;-45
2024/04/12 01:05:40;;;;;;;;;;;22.10;59.80;;;;;;5461705;26;20033;-45
2024/04/12 01:08:06;;;;;;;;;;;22.10;59.80;;;;;;5475817;26;20268;-43
2024/04/12 01:10:36;;;;;;;;;;;22.10;59.80;;;;;;5461993;26;19956;-47
2024/04/12 01:13:02;;;;;;;;;;;22.10;59.70;;;;;;5490144;26;19935;-45
2024/04/12 01:15:37;;;;;;;;;;;22.00;59.60;;;;;;5490116;26;19935;-45
2024/04/12 01:18:04;;;;;;;;;;;22.00;59.60;;;;;;5477614;26;20004;-44
2024/04/12 01:20:32;;;;;;;;;;;22.00;59.60;;;;;;5484972;26;20664;-44
2024/04/12 01:22:59;;;;;;;;;;;22.00;59.60;;;;;;5478646;26;20003;-43
2024/04/12 01:25:25;;;;;;;;;;;22.00;59.60;;;;;;5481811;26;19928;-44
2024/04/12 01:27:51;;;;;;;;;;;22.00;59.60;;;;;;5479267;26;19929;-42
2024/04/12 01:30:20;;;;;;;;;;;22.00;59.60;;;;;;5465678;26;19957;-43
2024/04/12 01:32:50;;;;;;;;;;;21.90;59.50;;;;;;5507216;26;20024;-46
2024/04/12 01:35:16;;;;;;;;;;;21.90;59.50;;;;;;5465472;26;19946;-43
2024/04/12 01:37:46;;;;;;;;;;;21.90;59.60;;;;;;5476796;26;19977;-43
2024/04/12 01:40:12;;;;;;;;;;;21.90;59.50;;;;;;5463723;26;19936;-45
2024/04/12 01:42:42;;;;;;;;;;;21.90;59.60;;;;;;5465200;26;19935;-46
2024/04/12 01:45:15;;;;;;;;;;;21.80;59.50;;;;;;5466853;26;19995;-44
2024/04/12 01:47:42;;;;;;;;;;;21.80;59.50;;;;;;5463964;26;19928;-43
2024/04/12 01:50:12;;;;;;;;;;;21.80;59.50;;;;;;5479195;26;19928;-46
2024/04/12 01:52:53;;;;;;;;;;;21.80;59.60;;;;;;5474792;26;19961;-45
2024/04/12 01:55:20;;;;;;;;;;;21.80;59.50;;;;;;5476308;26;19949;-44
2024/04/12 01:57:47;;;;;;;;;;;21.80;59.50;;;;;;5476771;26;19928;-44
2024/04/12 02:00:16;;;;;;;;;;;21.80;59.50;;;;;;5480861;26;19929;-45
2024/04/12 02:02:43;;;;;;;;;;;21.70;59.40;;;;;;5440228;26;19936;-47
2024/04/12 02:05:09;;;;;;;;;;;21.70;59.50;;;;;;5477561;26;19977;-47
2024/04/12 02:07:39;;;;;;;;;;;21.70;59.50;;;;;;5463562;26;19932;-45
2024/04/12 02:10:11;;;;;;;;;;;21.70;59.50;;;;;;5432882;26;19940;-46
2024/04/12 02:12:42;;;;;;;;;;;21.70;59.50;;;;;;5463466;26;19933;-48
2024/04/12 02:15:22;;;;;;;;;;;21.60;59.40;;;;;;5477224;26;19928;-44
2024/04/12 02:17:57;;;;;;;;;;;21.60;59.40;;;;;;5463674;26;19937;-44
2024/04/12 02:20:33;;;;;;;;;;;21.60;59.40;;;;;;5479481;26;19929;-44
2024/04/12 02:23:05;;;;;;;;;;;21.60;59.40;;;;;;5467622;26;19940;-48
2024/04/12 02:25:35;;;;;;;;;;;21.60;59.40;;;;;;5463274;26;19928;-47
2024/04/12 02:28:08;;;;;;;;;;;21.50;59.30;;;;;;5464876;26;19932;-46
2024/04/12 02:30:41;;;;;;;;;;;21.50;59.30;;;;;;5474368;26;20461;-47
2024/04/12 02:33:18;;;;;;;;;;;21.50;59.40;;;;;;5464100;26;19952;-49
2024/04/12 02:36:01;;;;;;;;;;;21.50;59.40;;;;;;5463085;26;19928;-46
2024/04/12 02:38:28;;;;;;;;;;;21.40;59.30;;;;;;5432211;26;20151;-47
2024/04/12 02:40:57;;;;;;;;;;;21.50;59.30;;;;;;5463410;26;19929;-46
2024/04/12 02:43:24;;;;;;;;;;;21.50;59.30;;;;;;5463993;26;19928;-47
2024/04/12 02:45:51;;;;;;;;;;;21.40;59.30;;;;;;5446525;26;19940;-46
2024/04/12 02:48:17;;;;;;;;;;;21.40;59.30;;;;;;5475895;26;19936;-45
2024/04/12 02:50:43;;;;;;;;;;;21.40;59.30;;;;;;5490844;26;19940;-43
2024/04/12 02:53:17;;;;;;;;;;;21.40;59.30;;;;;;5481723;26;19943;-43
2024/04/12 02:55:43;;;;;;;;;;;21.30;59.20;;;;;;5462922;26;19937;-43
2024/04/12 02:58:09;;;;;;;;;;;21.30;59.20;;;;;;5467590;26;19935;-43
2024/04/12 03:00:37;;;;;;;;;;;21.30;59.20;;;;;;5482288;26;19948;-43
2024/04/12 03:03:04;;;;;;;;;;;21.30;59.20;;;;;;5478824;26;19938;-43
2024/04/12 03:05:32;;;;;;;;;;;21.30;59.20;;;;;;5463735;26;20218;-46
2024/04/12 03:08:00;;;;;;;;;;;21.30;59.20;;;;;;5478451;26;19966;-44
2024/04/12 03:10:27;;;;;;;;;;;21.20;59.10;;;;;;5476156;26;20250;-44
2024/04/12 03:12:53;;;;;;;;;;;21.20;59.10;;;;;;5475898;26;20357;-42
2024/04/12 03:15:20;;;;;;;;;;;21.20;59.10;;;;;;5488001;26;19935;-42
2024/04/12 03:17:48;;;;;;;;;;;21.20;59.10;;;;;;5484291;26;20857;-44
2024/04/12 03:20:18;;;;;;;;;;;21.10;59.10;;;;;;5481875;26;19945;-44
2024/04/12 03:22:44;;;;;;;;;;;21.10;59.10;;;;;;5483010;26;26187;-43
2024/04/12 03:25:10;;;;;;;;;;;21.10;59.10;;;;;;5482793;26;19936;-43
2024/04/12 03:27:38;;;;;;;;;;;21.10;59.10;;;;;;5484025;26;19935;-42
2024/04/12 03:30:13;;;;;;;;;;;21.00;59.00;;;;;;5484156;26;19963;-43
2024/04/12 03:32:45;;;;;;;;;;;21.00;59.00;;;;;;5484185;26;19928;-45
2024/04/12 03:35:16;;;;;;;;;;;21.00;59.00;;;;;;5482611;26;19933;-45
2024/04/12 03:40:30;;;;;;;;;;;20.90;59.00;;;;;;5484399;26;19939;-42
2024/04/12 03:43:02;;;;;;;;;;;20.90;59.00;;;;;;5482893;26;20463;-41
2024/04/12 03:45:30;;;;;;;;;;;20.90;59.00;;;;;;5471702;26;19992;-44
2024/04/12 03:47:57;;;;;;;;;;;20.90;59.00;;;;;;5464092;26;20265;-43
2024/04/12 03:50:30;;;;;;;;;;;20.90;58.90;;;;;;5477536;26;19927;-45
2024/04/12 03:53:14;;;;;;;;;;;20.90;59.00;;;;;;5482547;26;19943;-44
2024/04/12 03:55:45;;;;;;;;;;;20.80;58.90;;;;;;5481716;26;19931;-43
2024/04/12 03:58:17;;;;;;;;;;;20.80;59.00;;;;;;5480674;26;19943;-43
2024/04/12 04:00:45;;;;;;;;;;;20.80;58.90;;;;;;5481738;26;19928;-45
2024/04/12 04:03:30;;;;;;;;;;;20.80;59.00;;;;;;5482620;26;19936;-44
2024/04/12 04:06:05;;;;;;;;;;;20.70;58.90;;;;;;5481447;26;19940;-46
2024/04/12 04:08:47;;;;;;;;;;;20.70;58.90;;;;;;5483740;26;19932;-44
2024/04/12 04:11:16;;;;;;;;;;;20.70;58.90;;;;;;5482201;26;19934;-47
2024/04/12 04:13:44;;;;;;;;;;;20.70;58.90;;;;;;5470469;26;19935;-45
2024/04/12 04:16:16;;;;;;;;;;;20.70;58.90;;;;;;5449341;26;20407;-44
2024/04/12 04:18:48;;;;;;;;;;;20.60;58.90;;;;;;5444418;26;19948;-42
2024/04/12 04:21:14;;;;;;;;;;;20.60;58.90;;;;;;5455739;26;19933;-46
2024/04/12 04:23:42;;;;;;;;;;;20.60;58.90;;;;;;5449042;26;19936;-44
2024/04/12 04:26:08;;;;;;;;;;;20.60;58.90;;;;;;5429265;26;19932;-45
2024/04/12 04:28:34;;;;;;;;;;;20.60;58.90;;;;;;5426953;26;19936;-46
2024/04/12 04:31:05;;;;;;;;;;;20.60;58.90;;;;;;5440712;26;19929;-43
2024/04/12 04:33:34;;;;;;;;;;;20.60;58.90;;;;;;5449951;26;19941;-42
2024/04/12 04:36:09;;;;;;;;;;;20.50;58.90;;;;;;5427784;26;19965;-42
2024/04/12 04:38:38;;;;;;;;;;;20.50;58.90;;;;;;5447241;26;20026;-43
2024/04/12 04:41:07;;;;;;;;;;;20.50;58.90;;;;;;5443313;26;19940;-41
2024/04/12 04:43:33;;;;;;;;;;;20.50;58.90;;;;;;5445466;26;19940;-46
2024/04/12 04:46:10;;;;;;;;;;;20.50;58.90;;;;;;5440973;26;19974;-41
2024/04/12 04:48:36;;;;;;;;;;;20.50;58.90;;;;;;5427717;26;19928;-44
2024/04/12 04:51:02;;;;;;;;;;;20.40;58.90;;;;;;5451994;26;19935;-42
2024/04/12 04:53:29;;;;;;;;;;;20.40;58.90;;;;;;5450828;26;19932;-45
2024/04/12 04:56:01;;;;;;;;;;;20.40;58.90;;;;;;5449738;26;19942;-45
2024/04/12 04:58:28;;;;;;;;;;;20.40;58.90;;;;;;5444351;26;20053;-46
2024/04/12 05:00:54;;;;;;;;;;;20.40;58.90;;;;;;5450257;26;19945;-42
2024/04/12 05:03:20;;;;;;;;;;;20.30;58.80;;;;;;5449411;26;20662;-44
2024/04/12 05:05:49;;;;;;;;;;;20.30;58.90;;;;;;5447459;26;19935;-42
2024/04/12 05:08:16;;;;;;;;;;;20.30;58.90;;;;;;5448834;26;20792;-43
2024/04/12 05:10:43;;;;;;;;;;;20.30;58.90;;;;;;5466143;26;19928;-44
2024/04/12 05:13:11;;;;;;;;;;;20.30;58.90;;;;;;5456532;26;19999;-41
2024/04/12 05:18:06;;;;;;;;;;;20.20;58.90;;;;;;5441842;26;20460;-42
2024/04/12 05:20:39;;;;;;;;;;;20.30;58.90;;;;;;5454000;26;19930;-42
2024/04/12 05:23:15;;;;;;;;;;;20.30;58.90;;;;;;5448518;26;19948;-42
2024/04/12 05:25:43;;;;;;;;;;;20.20;58.90;;;;;;5447409;26;20380;-42
2024/04/12 05:28:09;;;;;;;;;;;20.20;58.90;;;;;;5450641;26;19974;-41
2024/04/12 05:30:40;;;;;;;;;;;20.20;58.90;;;;;;5454459;26;19940;-43
2024/04/12 05:33:06;;;;;;;;;;;20.20;58.90;;;;;;5437457;26;19959;-42
2024/04/12 05:35:34;;;;;;;;;;;20.10;58.90;;;;;;5449880;26;19928;-41
2024/04/12 05:38:07;;;;;;;;;;;20.10;58.90;;;;;;5446027;26;19928;-43
2024/04/12 05:40:40;;;;;;;;;;;20.10;59.00;;;;;;5450210;26;19929;-43
2024/04/12 05:43:15;;;;;;;;;;;20.10;58.90;;;;;;5451964;26;19935;-43
2024/04/12 05:45:41;;;;;;;;;;;20.10;58.90;;;;;;5443249;26;20429;-42
2024/04/12 05:48:13;;;;;;;;;;;20.10;58.90;;;;;;5455611;26;19928;-44
2024/04/12 05:50:42;;;;;;;;;;;20.10;58.90;;;;;;5451645;26;19992;-43
2024/04/12 05:53:11;;;;;;;;;;;20.10;58.90;;;;;;5455161;26;19956;-41
2024/04/12 05:58:26;;;;;;;;;;;20.00;58.90;;;;;;5403377;26;19975;-43
2024/04/12 06:00:52;;;;;;;;;;;20.00;59.00;;;;;;5440197;26;19941;-46
2024/04/12 06:03:17;;;;;;;;;;;20.00;59.00;;;;;;5445783;26;19928;-42
2024/04/12 06:05:46;;;;;;;;;;;20.00;59.00;;;;;;5436627;26;19935;-42
2024/04/12 06:08:14;;;;;;;;;;;20.00;59.00;;;;;;5454499;26;19933;-45
2024/04/12 06:10:44;;;;;;;;;;;20.00;59.00;;;;;;5450981;26;19990;-43
2024/04/12 06:13:11;;;;;;;;;;;19.90;58.90;;;;;;5452238;26;19946;-43
2024/04/12 06:15:37;;;;;;;;;;;19.90;58.90;;;;;;5484380;26;19991;-46
2024/04/12 06:18:05;;;;;;;;;;;19.90;59.00;;;;;;5518866;25;19936;-43
2024/04/12 06:20:34;;;;;;;;;;;19.90;59.00;;;;;;5515165;25;19936;-42
2024/04/12 06:23:06;;;;;;;;;;;19.80;59.00;;;;;;5508611;25;19928;-46
2024/04/12 06:25:43;;;;;;;;;;;19.90;59.00;;;;;;5479398;26;19928;-43
2024/04/12 06:28:11;;;;;;;;;;;19.80;58.90;;;;;;5518602;25;19927;-41
2024/04/12 06:30:39;;;;;;;;;;;19.80;59.00;;;;;;5514701;25;19948;-42
2024/04/12 06:33:06;;;;;;;;;;;19.80;59.00;;;;;;5528776;25;20008;-45
2024/04/12 06:35:32;;;;;;;;;;;19.80;59.00;;;;;;5519822;25;19928;-45
2024/04/12 06:37:58;;;;;;;;;;;19.80;59.00;;;;;;5521097;25;19938;-45
2024/04/12 06:40:28;;;;;;;;;;;19.80;59.10;;;;;;5520293;25;20380;-42
2024/04/12 06:42:55;;;;;;;;;;;19.80;59.10;;;;;;5520463;25;20388;-43
2024/04/12 06:45:21;;;;;;;;;;;19.80;59.10;;;;;;5511656;25;20468;-46
2024/04/12 06:47:48;;;;;;;;;;;19.70;59.00;;;;;;5477582;26;19997;-43
2024/04/12 06:50:14;;;;;;;;;;;19.70;59.00;;;;;;5522916;25;20443;-43
2024/04/12 06:52:40;;;;;;;;;;;19.70;59.00;;;;;;5520106;25;20384;-43
2024/04/12 06:55:14;;;;;;;;;;;19.70;59.10;;;;;;5520187;25;20344;-42
2024/04/12 06:57:44;;;;;;;;;;;19.70;59.10;;;;;;5522914;25;19935;-42
2024/04/12 07:00:10;;;;;;;;;;;19.70;59.10;;;;;;5520692;25;19980;-43
2024/04/12 07:02:36;;;;;;;;;;;19.60;59.10;;;;;;5522066;25;19932;-41
2024/04/12 07:05:05;;;;;;;;;;;19.60;59.10;;;;;;5521024;25;19935;-43
2024/04/12 07:07:32;;;;;;;;;;;19.60;59.20;;;;;;5523258;25;19927;-41
2024/04/12 07:09:58;;;;;;;;;;;19.60;59.10;;;;;;5519535;25;20674;-42
2024/04/12 07:12:27;;;;;;;;;;;19.60;59.10;;;;;;5522174;26;19934;-41
2024/04/12 07:14:54;;;;;;;;;;;19.60;59.20;;;;;;5519753;26;20360;-43
2024/04/12 07:17:20;;;;;;;;;;;19.60;59.20;;;;;;5519991;25;19935;-42
2024/04/12 07:19:49;;;;;;;;;;;19.50;59.10;;;;;;5525648;25;19935;-42
2024/04/12 07:22:21;;;;;;;;;;;19.50;59.10;;;;;;5530749;25;19939;-41
2024/04/12 07:24:47;;;;;;;;;;;19.50;59.20;;;;;;5511394;25;19927;-42
2024/04/12 07:27:16;;;;;;;;;;;19.50;59.50;;;;;;5515766;25;19927;-42
2024/04/12 07:29:44;;;;;;;;;;;19.60;59.80;;;;;;5523942;25;19934;-42
2024/04/12 07:32:13;;;;;;;;;;;19.60;59.70;;;;;;5500268;25;19947;-44
2024/04/12 07:34:48;;;;;;;;;;;19.60;59.60;;;;;;5499200;26;19936;-42
2024/04/12 07:37:32;;;;;;;;;;;19.50;59.50;;;;;;5503159;25;19935;-42
2024/04/12 07:40:18;;;;;;;;;;;19.50;59.50;;;;;;5486502;25;19938;-43
2024/04/12 07:42:47;;;;;;;;;;;19.60;59.60;;;;;;5523811;25;19935;-43
2024/04/12 07:45:25;;;;;;;;;;;19.50;59.50;;;;;;5521069;25;19928;-43
2024/04/12 07:47:56;;;;;;;;;;;19.50;59.50;;;;;;5530791;25;19934;-43
2024/04/12 07:50:22;;;;;;;;;;;19.50;59.50;;;;;;5514637;25;19928;-43
2024/04/12 07:52:50;;;;;;;;;;;19.50;59.50;;;;;;5520777;25;19967;-41
2024/04/12 07:55:24;;;;;;;;;;;19.40;59.40;;;;;;5517248;25;19928;-41
2024/04/12 07:57:52;;;;;;;;;;;19.50;59.50;;;;;;5521029;25;19928;-44
2024/04/12 08:00:35;;;;;;;;;;;19.50;60.00;;;;;;5513289;25;19939;-45
2024/04/12 08:03:06;;;;;;;;;;;19.60;60.00;;;;;;5513496;25;19973;-43
2024/04/12 08:05:42;;;;;;;;;;;19.60;59.90;;;;;;5500470;26;19928;-44
2024/04/12 08:08:14;;;;;;;;;;;19.50;59.80;;;;;;5512840;25;19928;-43
2024/04/12 08:10:41;;;;;;;;;;;19.50;59.80;;;;;;5498332;25;19956;-44
2024/04/12 08:13:10;;;;;;;;;;;19.50;59.80;;;;;;5513645;25;19928;-42
2024/04/12 08:15:41;;;;;;;;;;;19.50;59.70;;;;;;5503843;25;19928;-43
2024/04/12 08:18:07;;;;;;;;;;;19.50;59.70;;;;;;5516707;25;19927;-43
2024/04/12 08:20:39;;;;;;;;;;;19.50;59.70;;;;;;5523863;25;19928;-43
2024/04/12 08:23:05;;;;;;;;;;;19.50;59.70;;;;;;5517468;25;19958;-42
2024/04/12 08:25:36;;;;;;;;;;;19.40;59.70;;;;;;5522110;25;19942;-46
2024/04/12 08:28:06;;;;;;;;;;;19.40;59.90;;;;;;5521720;25;19939;-46
2024/04/12 08:30:33;;;;;;;;;;;19.50;60.20;;;;;;5519637;25;19935;-43
2024/04/12 08:33:02;;;;;;;;;;;19.50;60.00;;;;;;5518850;25;19935;-46
2024/04/12 08:35:29;;;;;;;;;;;19.50;60.00;;;;;;5519795;25;19942;-44
2024/04/12 08:37:57;;;;;;;;;;;19.50;60.00;;;;;;5519265;25;19935;-44
2024/04/12 08:40:25;;;;;;;;;;;19.50;60.00;;;;;;5519000;25;19927;-43
2024/04/12 08:42:53;;;;;;;;;;;19.50;60.00;;;;;;5518049;25;19931;-45
2024/04/12 08:45:21;;;;;;;;;;;19.50;59.90;;;;;;5522042;25;20033;-43
2024/04/12 08:48:25;;;;;;;;;;;19.40;59.80;;;;;;5490925;26;19927;-44
2024/04/12 08:50:48;;;;;;;;;;;19.40;59.80;;;;;;5526905;25;19927;-44
2024/04/12 08:53:15;;;;;;;;;;;19.40;60.10;;;;;;5488815;25;20462;-47
2024/04/12 08:55:44;;;;;;;;;;;19.50;60.20;;;;;;5524237;26;19928;-43
2024/04/12 08:58:10;;;;;;;;;;;19.50;60.00;;;;;;5528505;25;19927;-48
2024/04/12 09:00:37;;;;;;;;;;;19.50;60.00;;;;;;5515329;25;19935;-44
2024/04/12 09:03:10;;;;;;;;;;;19.50;60.00;;;;;;5516278;25;19936;-43
2024/04/12 09:05:38;;;;;;;;;;;19.50;60.00;;;;;;5535489;25;20352;-43
2024/04/12 09:08:05;;;;;;;;;;;19.50;60.00;;;;;;5533815;25;19972;-42
2024/04/12 09:10:35;;;;;;;;;;;19.40;59.90;;;;;;5533839;25;20339;-42
2024/04/12 09:13:02;;;;;;;;;;;19.40;59.80;;;;;;5528835;25;19927;-43
2024/04/12 09:15:31;;;;;;;;;;;19.40;60.00;;;;;;5495741;26;19935;-44
2024/04/12 09:18:13;;;;;;;;;;;19.50;60.30;;;;;;5523179;25;19934;-44
2024/04/12 09:20:39;;;;;;;;;;;19.50;60.20;;;;;;5528615;25;20365;-42
2024/04/12 09:23:15;;;;;;;;;;;19.50;60.10;;;;;;5531743;25;19940;-45
2024/04/12 09:25:54;;;;;;;;;;;19.50;60.20;;;;;;5534059;25;19939;-43
2024/04/12 09:28:32;;;;;;;;;;;19.40;60.20;;;;;;5527677;25;19939;-46
2024/04/12 09:33:51;;;;;;;;;;;19.40;60.00;;;;;;5500847;26;20347;-42
2024/04/12 09:37:01;;;;;;;;;;;19.40;59.90;;;;;;5519813;25;19963;-46
2024/04/12 09:39:16;;;;;;;;;;;19.40;59.90;;;;;;5522684;25;20825;-42
2024/04/12 09:41:53;;;;;;;;;;;19.40;60.10;;;;;;5515072;25;19940;-46
2024/04/12 09:44:27;;;;;;;;;;;19.50;60.30;;;;;;5510714;25;19946;-46
2024/04/12 10:37:36;;;;;;;;;;;19.50;60.10;;;;;;5514352;25;20290;-43
2024/04/12 10:39:49;;;;;;;;;;;19.50;60.00;;;;;;5497641;25;19928;-43
2024/04/12 10:42:22;;;;;;;;;;;19.40;60.10;;;;;;5514758;25;19951;-45
2024/04/12 10:44:51;;;;;;;;;;;19.40;60.10;;;;;;5513438;25;19935;-42
2024/04/12 10:47:20;;;;;;;;;;;19.40;60.10;;;;;;5505525;25;20463;-42
2024/04/12 10:49:50;;;;;;;;;;;19.40;59.90;;;;;;5524495;25;19933;-43
2024/04/12 10:52:28;;;;;;;;;;;19.40;59.90;;;;;;5519999;25;19931;-44
2024/04/12 10:54:57;;;;;;;;;;;19.40;59.90;;;;;;5521581;25;19938;-44
2024/04/12 10:57:24;;;;;;;;;;;19.40;60.10;;;;;;5490949;25;19933;-41
2024/04/12 10:59:51;;;;;;;;;;;19.50;60.10;;;;;;5523364;25;19943;-44
2024/04/12 11:02:17;;;;;;;;;;;19.40;60.00;;;;;;5521291;25;19995;-42
2024/04/12 11:07:27;;;;;;;;;;;19.40;60.10;;;;;;5520743;25;20015;-45
2024/04/12 11:10:03;;;;;;;;;;;19.40;60.10;;;;;;5521904;25;19939;-42
2024/04/12 11:12:40;;;;;;;;;;;19.40;60.00;;;;;;5523860;25;19939;-44
2024/04/12 11:32:21;;;;;;;;;;;19.40;60.00;;;;;;5505979;26;19934;-43
2024/04/12 11:34:47;;;;;;;;;;;19.40;60.00;;;;;;5519372;26;19943;-45
2024/04/12 11:37:15;;;;;;;;;;;19.30;59.90;;;;;;5519008;25;20004;-42
2024/04/12 11:39:45;;;;;;;;;;;19.30;60.00;;;;;;5522147;25;19928;-42
2024/04/12 11:42:15;;;;;;;;;;;19.40;60.20;;;;;;5526994;25;19935;-43
2024/04/12 11:44:47;;;;;;;;;;;19.40;60.10;;;;;;5513084;25;20410;-44
2024/04/12 11:47:15;;;;;;;;;;;19.40;60.00;;;;;;5517021;25;19928;-43
2024/04/12 11:49:49;;;;;;;;;;;19.40;60.00;;;;;;5514761;25;19939;-42
2024/04/12 11:52:18;;;;;;;;;;;19.40;60.80;;;;;;5529876;25;19935;-43
2024/04/12 11:54:59;;;;;;;;;;;19.40;60.00;;;;;;5531422;25;20001;-46
2024/04/12 11:57:27;;;;;;;;;;;19.30;59.90;;;;;;5519090;25;19927;-42
2024/04/12 12:00:08;;;;;;;;;;;19.30;59.80;;;;;;5531850;25;19928;-42
2024/04/12 12:02:35;;;;;;;;;;;19.30;59.90;;;;;;5532260;25;19951;-43
2024/04/12 12:05:04;;;;;;;;;;;19.30;59.90;;;;;;5529356;25;19934;-44
2024/04/12 12:07:30;;;;;;;;;;;19.40;59.90;;;;;;5513237;25;19951;-45
2024/04/12 12:09:56;;;;;;;;;;;19.40;59.90;;;;;;5512887;25;19934;-43
2024/04/12 12:12:22;;;;;;;;;;;19.40;59.90;;;;;;5526038;25;19928;-43
2024/04/12 12:14:51;;;;;;;;;;;19.40;59.90;;;;;;5503307;25;19944;-45
2024/04/12 12:17:18;;;;;;;;;;;19.30;59.90;;;;;;5517022;25;19973;-44
2024/04/12 12:19:47;;;;;;;;;;;19.30;59.80;;;;;;5526423;25;19928;-43
2024/04/12 12:22:13;;;;;;;;;;;19.30;59.80;;;;;;5520251;25;19939;-43
2024/04/12 12:24:39;;;;;;;;;;;19.30;59.80;;;;;;5519359;25;19936;-42
2024/04/12 12:27:08;;;;;;;;;;;19.40;60.00;;;;;;5520268;25;19941;-41
2024/04/12 12:29:37;;;;;;;;;;;19.40;59.80;;;;;;5521314;25;19939;-43
2024/04/12 12:32:03;;;;;;;;;;;19.40;59.80;;;;;;5518912;26;19928;-43
2024/04/12 12:34:29;;;;;;;;;;;19.40;59.80;;;;;;5519817;25;19927;-41
2024/04/12 12:36:59;;;;;;;;;;;19.40;59.90;;;;;;5486919;25;19935;-44
2024/04/12 12:39:31;;;;;;;;;;;19.40;59.80;;;;;;5519347;25;19936;-41
2024/04/12 12:41:57;;;;;;;;;;;19.40;59.80;;;;;;5518660;25;19999;-41
2024/04/12 12:44:23;;;;;;;;;;;19.30;59.70;;;;;;5521538;25;19971;-42
2024/04/12 12:46:49;;;;;;;;;;;19.30;59.70;;;;;;5520428;25;19944;-44
2024/04/12 12:49:19;;;;;;;;;;;19.30;59.70;;;;;;5519037;25;19952;-45
2024/04/12 12:51:47;;;;;;;;;;;19.40;59.80;;;;;;5522604;26;20000;-40
2024/04/12 12:54:13;;;;;;;;;;;19.40;59.70;;;;;;5529139;25;19927;-42
2024/04/12 12:56:40;;;;;;;;;;;19.40;59.70;;;;;;5537410;25;19941;-43
2024/04/12 12:59:06;;;;;;;;;;;19.40;59.70;;;;;;5531778;25;20378;-42
2024/04/12 13:01:35;;;;;;;;;;;19.40;59.60;;;;;;5523722;26;20252;-42
2024/04/12 13:04:05;;;;;;;;;;;19.40;59.60;;;;;;5499227;25;19928;-42
2024/04/12 13:06:34;;;;;;;;;;;19.40;59.60;;;;;;5518313;25;19968;-41
2024/04/12 13:09:00;;;;;;;;;;;19.40;59.60;;;;;;5516934;25;19928;-41
2024/04/12 13:11:26;;;;;;;;;;;19.40;59.60;;;;;;5511869;25;19928;-43
2024/04/12 13:13:52;;;;;;;;;;;19.40;59.60;;;;;;5522393;25;20713;-41
2024/04/12 13:16:18;;;;;;;;;;;19.50;59.60;;;;;;5518684;25;19939;-41
2024/04/12 13:18:45;;;;;;;;;;;19.50;59.50;;;;;;5520066;25;19931;-41
2024/04/12 13:21:11;;;;;;;;;;;19.50;59.40;;;;;;5519329;25;19931;-43
2024/04/12 13:23:37;;;;;;;;;;;19.40;59.40;;;;;;5516980;25;19972;-41
2024/04/12 13:26:18;;;;;;;;;;;19.50;59.40;;;;;;5520166;25;19935;-42
2024/04/12 13:28:44;;;;;;;;;;;19.40;59.30;;;;;;5520166;25;19935;-41
2024/04/12 13:31:14;;;;;;;;;;;19.50;59.40;;;;;;5523648;25;19935;-41
2024/04/12 13:33:40;;;;;;;;;;;19.50;59.30;;;;;;5524284;25;19940;-41
2024/04/12 13:36:10;;;;;;;;;;;19.50;59.40;;;;;;5522259;25;20276;-41
2024/04/12 13:38:36;;;;;;;;;;;19.50;59.40;;;;;;5523744;25;19927;-41
2024/04/12 13:41:04;;;;;;;;;;;19.60;59.30;;;;;;5522939;25;19927;-42
2024/04/12 13:43:32;;;;;;;;;;;19.60;59.30;;;;;;5524410;25;19936;-41
2024/04/12 13:51:29;;;;;;;;;;;19.60;59.20;;;;;;5522905;25;19972;-42
2024/04/12 13:53:55;;;;;;;;;;;19.50;59.20;;;;;;5522648;25;19935;-42
2024/04/12 13:56:27;;;;;;;;;;;19.50;59.00;;;;;;5488380;26;19939;-41
2024/04/12 13:58:57;;;;;;;;;;;19.60;59.20;;;;;;5522388;25;19990;-44
2024/04/12 14:01:23;;;;;;;;;;;19.50;59.10;;;;;;5522119;25;20362;-41
2024/04/12 14:03:52;;;;;;;;;;;19.60;59.20;;;;;;5522279;25;20072;-45
2024/04/12 14:06:24;;;;;;;;;;;19.70;59.20;;;;;;5522193;25;20325;-45
2024/04/12 14:08:54;;;;;;;;;;;19.70;59.10;;;;;;5524582;25;19934;-44
2024/04/12 14:11:20;;;;;;;;;;;19.70;59.00;;;;;;5523973;25;19927;-41
2024/04/12 14:13:46;;;;;;;;;;;19.70;59.00;;;;;;5522720;26;19960;-40
2024/04/12 14:16:16;;;;;;;;;;;19.70;59.00;;;;;;5522607;26;19942;-42
2024/04/12 14:18:48;;;;;;;;;;;19.70;59.00;;;;;;5524374;26;19940;-42
2024/04/12 14:21:15;;;;;;;;;;;19.70;58.90;;;;;;5527841;25;19927;-42
2024/04/12 14:23:44;;;;;;;;;;;19.70;58.90;;;;;;5524574;25;19995;-41
2024/04/12 14:26:10;;;;;;;;;;;19.70;58.90;;;;;;5528480;25;19938;-41
2024/04/12 14:28:37;;;;;;;;;;;19.70;58.80;;;;;;5523659;25;19935;-44
2024/04/12 14:31:03;;;;;;;;;;;19.70;58.80;;;;;;5531927;25;19933;-42
2024/04/12 14:33:31;;;;;;;;;;;19.70;58.70;;;;;;5521366;25;20490;-41
2024/04/12 14:35:59;;;;;;;;;;;19.70;58.70;;;;;;5531826;25;19944;-45
2024/04/12 14:38:29;;;;;;;;;;;19.70;58.70;;;;;;5519950;25;19948;-45
2024/04/12 14:40:59;;;;;;;;;;;19.80;58.70;;;;;;5518492;25;19935;-42
2024/04/12 14:43:25;;;;;;;;;;;19.70;58.60;;;;;;5482874;26;19928;-41
2024/04/12 14:45:51;;;;;;;;;;;19.70;58.50;;;;;;5518296;25;19947;-42
2024/04/12 14:48:17;;;;;;;;;;;19.70;58.50;;;;;;5531218;25;19928;-41
2024/04/12 14:50:47;;;;;;;;;;;19.70;58.50;;;;;;5519423;25;19939;-44
2024/04/12 14:53:13;;;;;;;;;;;19.80;59.10;;;;;;5535239;25;19935;-45
2024/04/12 14:55:39;;;;;;;;;;;19.80;58.50;;;;;;5520296;25;19952;-43
2024/04/12 14:58:05;;;;;;;;;;;19.80;58.50;;;;;;5527538;26;19972;-42
2024/04/12 15:00:31;;;;;;;;;;;19.70;58.40;;;;;;5533203;26;20478;-43
2024/04/12 15:50:26;;;;;;;;;;;20.00;57.90;;;;;;5523714;26;19972;-41
2024/04/12 15:52:13;;;;;;;;;;;20.00;57.90;;;;;;5507008;25;19935;-46
2024/04/12 15:55:16;;;;;;;;;;;20.00;57.90;;;;;;5500554;25;19939;-41
2024/04/12 16:11:10;;;;;;;;;;;20.10;57.70;;;;;;5499788;25;19936;-41
2024/04/12 16:13:36;;;;;;;;;;;20.10;57.70;;;;;;5504988;25;19928;-42
2024/04/12 16:16:02;;;;;;;;;;;20.20;57.70;;;;;;5466527;26;19936;-41
2024/04/12 16:18:28;;;;;;;;;;;20.20;57.60;;;;;;5462657;26;19936;-44
2024/04/12 16:20:54;;;;;;;;;;;20.20;57.50;;;;;;5492119;26;19927;-41
2024/04/12 16:23:20;;;;;;;;;;;20.20;57.50;;;;;;5463286;26;19928;-44
2024/04/12 16:25:46;;;;;;;;;;;20.20;57.50;;;;;;5473498;26;20358;-41
2024/04/12 16:28:13;;;;;;;;;;;20.20;57.50;;;;;;5474273;26;19940;-41
2024/04/12 16:30:42;;;;;;;;;;;20.20;57.50;;;;;;5463440;26;19974;-44
2024/04/12 16:33:09;;;;;;;;;;;20.30;57.60;;;;;;5463940;26;19935;-40
2024/04/12 16:35:35;;;;;;;;;;;20.30;57.50;;;;;;5462321;26;19976;-45
2024/04/12 16:38:02;;;;;;;;;;;20.30;57.50;;;;;;5462232;26;19928;-43
2024/04/12 16:40:31;;;;;;;;;;;20.30;57.50;;;;;;5461580;26;19946;-42
2024/04/12 16:42:57;;;;;;;;;;;20.40;57.40;;;;;;5475612;26;19932;-43
2024/04/12 16:45:24;;;;;;;;;;;20.40;57.40;;;;;;5466665;26;19929;-42
2024/04/12 16:47:51;;;;;;;;;;;20.40;57.40;;;;;;5462253;26;19940;-42
2024/04/12 16:50:17;;;;;;;;;;;20.40;57.40;;;;;;5482866;26;19954;-43
2024/04/12 16:52:45;;;;;;;;;;;20.50;57.40;;;;;;5495211;26;19928;-45
2024/04/12 16:55:12;;;;;;;;;;;20.50;57.40;;;;;;5502634;25;19935;-40